Time;durP1;ratioP1;P1;durP2;ratioP2;P2;SDS_P1;SDS_P2;PMS_P1;PMS_P2;Temp;Humidity;BMP_temperature;BMP_pressure;BME280_temperature;BME280_humidity;BME280_pressure;Samples;Min_cycle;Max_cycle;Signal;HPM_P1;HPM_P2
2023/08/23 00:00:15;;;;;;;6.65;4.93;;;;;;;;;;4986529;28;20070;-76
2023/08/23 00:02:41;;;;;;;8.38;5.47;;;;;;;;;;4999456;28;20046;-76
2023/08/23 00:05:07;;;;;;;5.88;4.70;;;;;;;;;;4978990;28;20102;-76
2023/08/23 00:07:33;;;;;;;7.97;5.20;;;;;;;;;;4979604;28;20495;-76
2023/08/23 00:09:59;;;;;;;5.90;5.28;;;;;;;;;;4984862;28;20128;-76
2023/08/23 00:12:25;;;;;;;8.32;5.30;;;;;;;;;;4997033;28;20051;-76
2023/08/23 00:14:52;;;;;;;5.75;4.90;;;;;;;;;;4990642;28;20053;-76
2023/08/23 00:17:18;;;;;;;6.03;4.43;;;;;;;;;;4974327;28;20034;-75
2023/08/23 00:19:46;;;;;;;7.82;4.50;;;;;;;;;;4985610;28;20034;-76
2023/08/23 00:22:12;;;;;;;5.30;4.32;;;;;;;;;;4986101;28;20038;-75
2023/08/23 00:24:38;;;;;;;7.28;4.82;;;;;;;;;;4997225;28;20042;-75
2023/08/23 00:27:04;;;;;;;6.25;4.70;;;;;;;;;;4979464;28;20038;-75
2023/08/23 00:29:30;;;;;;;12.70;5.20;;;;;;;;;;4997129;28;20195;-76
2023/08/23 00:31:56;;;;;;;9.82;5.20;;;;;;;;;;4979377;28;20607;-75
2023/08/23 00:34:22;;;;;;;11.75;5.40;;;;;;;;;;4983263;28;20141;-75
2023/08/23 00:36:48;;;;;;;6.07;5.00;;;;;;;;;;4983741;28;20122;-76
2023/08/23 00:39:14;;;;;;;6.18;4.55;;;;;;;;;;4983246;28;20030;-76
2023/08/23 00:41:40;;;;;;;11.57;5.68;;;;;;;;;;4982681;28;20040;-76
2023/08/23 00:44:06;;;;;;;6.13;4.55;;;;;;;;;;4982102;28;20065;-76
2023/08/23 00:46:33;;;;;;;5.93;4.85;;;;;;;;;;4979163;28;20480;-76
2023/08/23 00:49:00;;;;;;;8.85;4.93;;;;;;;;;;4989491;28;21219;-76
2023/08/23 00:51:26;;;;;;;6.50;4.13;;;;;;;;;;4992832;28;20142;-75
2023/08/23 00:53:52;;;;;;;7.25;4.45;;;;;;;;;;4981674;28;20121;-76
2023/08/23 00:56:18;;;;;;;6.68;4.70;;;;;;;;;;4982681;28;20034;-76
2023/08/23 00:58:44;;;;;;;7.18;4.32;;;;;;;;;;4985905;28;20556;-76
2023/08/23 01:01:10;;;;;;;8.60;5.00;;;;;;;;;;4983125;28;20118;-76
2023/08/23 01:03:36;;;;;;;4.60;4.05;;;;;;;;;;4986770;28;20039;-75
2023/08/23 01:06:11;;;;;;;5.93;4.68;;;;;;;;;;4998003;28;20395;-75
2023/08/23 01:08:40;;;;;;;7.28;4.35;;;;;;;;;;4982997;28;20034;-76
2023/08/23 01:11:25;;;;;;;7.72;4.50;;;;;;;;;;4997764;28;20099;-76
2023/08/23 01:13:54;;;;;;;6.93;4.78;;;;;;;;;;4988335;28;20093;-76
2023/08/23 01:16:21;;;;;;;8.35;4.75;;;;;;;;;;4989630;28;20053;-75
2023/08/23 01:18:47;;;;;;;10.32;4.97;;;;;;;;;;4993308;28;20516;-76
2023/08/23 01:21:15;;;;;;;6.38;4.38;;;;;;;;;;4986860;28;20113;-75
2023/08/23 01:23:41;;;;;;;4.75;4.03;;;;;;;;;;4990138;28;20141;-75
2023/08/23 01:26:07;;;;;;;10.25;4.97;;;;;;;;;;4992778;28;20787;-75
2023/08/23 01:28:33;;;;;;;7.55;5.03;;;;;;;;;;4980979;28;20030;-75
2023/08/23 01:31:01;;;;;;;8.05;4.40;;;;;;;;;;4983470;28;20058;-75
2023/08/23 01:33:27;;;;;;;8.90;4.57;;;;;;;;;;4988288;28;20050;-75
2023/08/23 01:36:00;;;;;;;6.15;4.50;;;;;;;;;;4990064;28;20676;-75
2023/08/23 01:38:26;;;;;;;5.75;4.22;;;;;;;;;;4980229;28;20057;-74
2023/08/23 01:40:55;;;;;;;8.93;4.90;;;;;;;;;;4990315;28;20535;-75
2023/08/23 01:43:21;;;;;;;8.48;4.63;;;;;;;;;;4989219;28;20058;-74
2023/08/23 01:45:47;;;;;;;8.02;5.03;;;;;;;;;;4980652;28;20198;-74
2023/08/23 01:48:13;;;;;;;7.50;4.85;;;;;;;;;;4990272;28;20085;-74
2023/08/23 01:50:40;;;;;;;8.55;4.78;;;;;;;;;;4995874;28;20441;-74
2023/08/23 01:53:06;;;;;;;10.18;5.47;;;;;;;;;;4980730;28;20037;-74
2023/08/23 01:55:32;;;;;;;9.07;5.65;;;;;;;;;;4992544;28;20038;-75
2023/08/23 01:57:59;;;;;;;8.35;5.20;;;;;;;;;;4986930;28;20039;-75
2023/08/23 02:00:25;;;;;;;8.43;6.55;;;;;;;;;;4989130;28;20104;-75
2023/08/23 02:02:51;;;;;;;7.80;6.15;;;;;;;;;;4992999;28;20031;-74
2023/08/23 02:05:17;;;;;;;7.32;5.90;;;;;;;;;;4992336;28;20105;-74
2023/08/23 02:07:43;;;;;;;6.25;5.53;;;;;;;;;;4993163;28;20432;-74
2023/08/23 02:10:09;;;;;;;5.18;4.40;;;;;;;;;;4968398;28;20041;-74
2023/08/23 02:12:35;;;;;;;12.52;6.75;;;;;;;;;;4979737;28;20044;-74
2023/08/23 02:15:01;;;;;;;9.55;6.05;;;;;;;;;;4994309;28;20112;-74
2023/08/23 02:17:27;;;;;;;8.07;5.65;;;;;;;;;;4985779;28;20051;-74
2023/08/23 02:19:53;;;;;;;9.52;6.28;;;;;;;;;;4995373;28;20036;-74
2023/08/23 02:22:19;;;;;;;7.68;6.78;;;;;;;;;;4999767;28;20027;-74
2023/08/23 02:24:45;;;;;;;8.52;6.53;;;;;;;;;;4993465;28;20569;-74
2023/08/23 02:27:11;;;;;;;7.43;5.60;;;;;;;;;;4991971;28;20034;-74
2023/08/23 02:29:37;;;;;;;6.50;5.53;;;;;;;;;;4994358;28;20089;-74
2023/08/23 02:32:03;;;;;;;6.75;5.55;;;;;;;;;;4975973;28;20042;-74
2023/08/23 02:34:29;;;;;;;7.65;5.35;;;;;;;;;;4986383;28;20445;-74
2023/08/23 02:36:55;;;;;;;8.27;5.65;;;;;;;;;;4987096;28;20057;-74
2023/08/23 02:39:21;;;;;;;7.97;5.80;;;;;;;;;;4984528;28;20073;-74
2023/08/23 02:41:47;;;;;;;8.68;5.72;;;;;;;;;;4984787;28;20035;-74
2023/08/23 02:44:13;;;;;;;8.02;6.35;;;;;;;;;;4985321;28;20109;-76
2023/08/23 02:46:39;;;;;;;12.65;6.40;;;;;;;;;;4987056;28;20038;-73
2023/08/23 02:49:05;;;;;;;6.95;6.25;;;;;;;;;;4987685;28;20030;-74
2023/08/23 02:51:31;;;;;;;9.90;7.47;;;;;;;;;;4988644;28;20065;-74
2023/08/23 02:53:57;;;;;;;8.88;6.88;;;;;;;;;;4983387;28;20046;-74
2023/08/23 02:56:23;;;;;;;7.75;7.00;;;;;;;;;;4973809;28;20063;-74
2023/08/23 02:58:49;;;;;;;7.22;6.45;;;;;;;;;;4989496;28;20023;-74
2023/08/23 03:01:16;;;;;;;9.15;6.93;;;;;;;;;;4987725;28;20035;-75
2023/08/23 03:03:42;;;;;;;10.68;7.50;;;;;;;;;;4981465;28;20096;-77
2023/08/23 03:06:08;;;;;;;8.48;7.53;;;;;;;;;;4980968;28;20492;-77
2023/08/23 03:08:34;;;;;;;10.00;8.23;;;;;;;;;;4989280;28;20034;-77
2023/08/23 03:11:07;;;;;;;10.15;7.32;;;;;;;;;;4986799;28;20113;-76
2023/08/23 03:13:33;;;;;;;8.25;7.30;;;;;;;;;;4985538;28;20560;-74
2023/08/23 03:16:00;;;;;;;9.75;7.75;;;;;;;;;;4977763;28;20100;-74
2023/08/23 03:18:26;;;;;;;10.85;7.95;;;;;;;;;;4981645;28;20031;-74
2023/08/23 03:20:52;;;;;;;9.60;7.78;;;;;;;;;;4983947;28;20041;-75
2023/08/23 03:23:19;;;;;;;10.32;7.05;;;;;;;;;;4994211;28;20038;-75
2023/08/23 03:25:46;;;;;;;9.55;7.30;;;;;;;;;;4988102;28;20049;-75
2023/08/23 03:28:12;;;;;;;9.45;8.27;;;;;;;;;;4979460;28;20026;-76
2023/08/23 03:30:38;;;;;;;10.75;8.07;;;;;;;;;;4976298;28;20039;-76
2023/08/23 03:33:05;;;;;;;11.80;8.25;;;;;;;;;;4980865;28;20455;-75
2023/08/23 03:35:31;;;;;;;12.05;8.60;;;;;;;;;;4991961;28;20050;-74
2023/08/23 03:37:57;;;;;;;11.15;8.48;;;;;;;;;;4979679;28;20027;-75
2023/08/23 03:40:23;;;;;;;13.20;8.45;;;;;;;;;;4980642;28;20038;-76
2023/08/23 03:42:49;;;;;;;13.68;9.10;;;;;;;;;;4988033;28;20038;-76
2023/08/23 03:45:16;;;;;;;12.23;9.10;;;;;;;;;;4980064;28;20396;-76
2023/08/23 03:47:42;;;;;;;12.07;9.52;;;;;;;;;;4982431;28;20198;-76
2023/08/23 03:50:08;;;;;;;11.85;7.93;;;;;;;;;;4981794;28;20037;-77
2023/08/23 03:52:35;;;;;;;10.02;8.32;;;;;;;;;;4980784;28;20043;-79
2023/08/23 03:55:01;;;;;;;11.13;8.77;;;;;;;;;;4988784;28;20034;-85
2023/08/23 03:57:27;;;;;;;40.80;28.25;;;;;;;;;;4989364;28;20038;-82
2023/08/23 03:59:53;;;;;;;15.23;11.90;;;;;;;;;;4983285;28;20044;-83
2023/08/23 04:02:20;;;;;;;15.15;11.05;;;;;;;;;;4991848;28;20168;-73
2023/08/23 04:04:46;;;;;;;15.07;11.65;;;;;;;;;;4987118;28;20034;-75
2023/08/23 04:07:14;;;;;;;22.05;13.10;;;;;;;;;;4987687;28;20034;-78
2023/08/23 04:09:40;;;;;;;16.40;12.55;;;;;;;;;;4985643;28;20022;-77
2023/08/23 04:12:07;;;;;;;19.45;12.90;;;;;;;;;;4980444;28;20096;-75
2023/08/23 04:14:33;;;;;;;16.52;12.90;;;;;;;;;;4982839;28;20096;-75
2023/08/23 04:16:59;;;;;;;19.13;14.13;;;;;;;;;;4980486;28;21088;-76
2023/08/23 04:19:25;;;;;;;18.90;14.25;;;;;;;;;;4982390;28;20030;-75
2023/08/23 04:21:52;;;;;;;21.58;15.35;;;;;;;;;;4981628;28;20035;-85
2023/08/23 04:24:18;;;;;;;18.88;13.48;;;;;;;;;;4996801;28;20231;-88
2023/08/23 04:26:44;;;;;;;24.55;17.85;;;;;;;;;;5002768;28;20026;-80
2023/08/23 04:29:10;;;;;;;19.15;14.57;;;;;;;;;;4982745;28;20042;-76
2023/08/23 04:31:36;;;;;;;19.83;14.57;;;;;;;;;;4980116;28;20049;-75
2023/08/23 04:34:04;;;;;;;18.13;13.55;;;;;;;;;;4984353;28;20038;-75
2023/08/23 04:36:31;;;;;;;159.00;115.63;;;;;;;;;;4982430;28;20046;-83
2023/08/23 04:38:57;;;;;;;58.33;44.00;;;;;;;;;;4998692;28;20404;-83
2023/08/23 04:41:23;;;;;;;25.58;18.35;;;;;;;;;;4981532;28;20031;-81
2023/08/23 04:43:49;;;;;;;20.90;15.77;;;;;;;;;;4987404;28;20419;-75
2023/08/23 04:46:15;;;;;;;21.83;14.32;;;;;;;;;;4988491;28;20039;-75
2023/08/23 04:48:41;;;;;;;19.55;14.82;;;;;;;;;;4993658;28;20049;-75
2023/08/23 04:51:10;;;;;;;21.48;15.93;;;;;;;;;;4991270;28;20026;-76
2023/08/23 04:53:36;;;;;;;18.25;14.25;;;;;;;;;;4982738;28;20234;-75
2023/08/23 04:56:03;;;;;;;26.25;16.45;;;;;;;;;;4990779;28;20089;-75
2023/08/23 04:58:32;;;;;;;22.10;15.75;;;;;;;;;;4999289;28;20030;-75
2023/08/23 05:00:59;;;;;;;22.98;15.65;;;;;;;;;;4980268;28;21952;-76
2023/08/23 05:03:29;;;;;;;19.15;15.27;;;;;;;;;;4990318;28;20070;-75
2023/08/23 05:05:55;;;;;;;20.75;13.98;;;;;;;;;;4987347;28;20049;-75
2023/08/23 05:08:21;;;;;;;21.98;15.35;;;;;;;;;;4991907;28;20038;-75
2023/08/23 05:10:51;;;;;;;24.55;15.02;;;;;;;;;;4986787;28;20034;-75
2023/08/23 05:13:17;;;;;;;18.98;14.43;;;;;;;;;;4990741;28;20035;-76
2023/08/23 05:15:43;;;;;;;21.25;14.35;;;;;;;;;;4988516;28;20035;-76
2023/08/23 05:18:09;;;;;;;17.95;13.50;;;;;;;;;;4984425;28;20061;-75
2023/08/23 05:20:36;;;;;;;15.75;12.80;;;;;;;;;;4995211;28;20479;-75
2023/08/23 05:23:02;;;;;;;22.17;14.57;;;;;;;;;;4995628;28;20038;-75
2023/08/23 05:25:28;;;;;;;19.45;13.85;;;;;;;;;;4989143;28;20110;-75
2023/08/23 05:27:54;;;;;;;20.77;13.55;;;;;;;;;;4989712;28;20118;-75
2023/08/23 05:30:20;;;;;;;18.73;13.23;;;;;;;;;;4985127;28;20423;-75
2023/08/23 05:32:46;;;;;;;17.27;13.65;;;;;;;;;;4992653;28;20050;-74
2023/08/23 05:35:12;;;;;;;17.35;12.82;;;;;;;;;;4995955;28;20125;-74
2023/08/23 05:37:39;;;;;;;18.90;14.23;;;;;;;;;;4993808;28;20091;-75
2023/08/23 05:40:08;;;;;;;17.02;12.45;;;;;;;;;;4983910;28;20046;-75
2023/08/23 05:42:34;;;;;;;20.38;13.85;;;;;;;;;;4990386;28;20038;-74
2023/08/23 05:45:00;;;;;;;17.42;13.50;;;;;;;;;;4990188;28;20040;-75
2023/08/23 05:47:26;;;;;;;20.10;14.82;;;;;;;;;;4986942;28;20053;-74
2023/08/23 05:49:52;;;;;;;19.15;13.75;;;;;;;;;;4985686;28;20035;-74
2023/08/23 05:52:19;;;;;;;20.48;15.15;;;;;;;;;;4996239;28;20061;-74
2023/08/23 05:54:45;;;;;;;19.50;14.48;;;;;;;;;;4987464;28;20050;-75
2023/08/23 05:57:11;;;;;;;22.00;15.38;;;;;;;;;;4994071;28;20027;-75
2023/08/23 05:59:37;;;;;;;18.48;15.20;;;;;;;;;;4987852;28;20384;-75
2023/08/23 06:02:03;;;;;;;19.48;15.27;;;;;;;;;;4994265;28;20034;-76
2023/08/23 06:04:29;;;;;;;23.90;16.42;;;;;;;;;;4987141;28;20052;-76
2023/08/23 06:06:55;;;;;;;20.70;15.48;;;;;;;;;;4996882;28;20468;-75
2023/08/23 06:09:21;;;;;;;19.27;14.80;;;;;;;;;;4993428;28;20030;-75
2023/08/23 06:11:47;;;;;;;18.35;14.70;;;;;;;;;;5000111;28;20037;-75
2023/08/23 06:14:20;;;;;;;19.33;14.80;;;;;;;;;;4993600;28;20053;-75
2023/08/23 06:16:46;;;;;;;17.60;14.35;;;;;;;;;;4981523;28;20034;-77
2023/08/23 06:19:12;;;;;;;20.33;15.88;;;;;;;;;;4985012;28;20479;-77
2023/08/23 06:21:38;;;;;;;19.77;15.20;;;;;;;;;;4982466;28;20097;-75
2023/08/23 06:24:05;;;;;;;24.75;14.60;;;;;;;;;;4993075;28;20046;-77
2023/08/23 06:26:31;;;;;;;20.83;14.13;;;;;;;;;;4986242;28;20030;-78
2023/08/23 06:28:57;;;;;;;19.38;14.85;;;;;;;;;;5000918;28;20061;-79
2023/08/23 06:31:23;;;;;;;36.58;25.88;;;;;;;;;;4983538;28;20062;-77
2023/08/23 06:33:49;;;;;;;32.85;23.25;;;;;;;;;;4981650;28;20133;-77
2023/08/23 06:36:15;;;;;;;30.10;22.30;;;;;;;;;;4979903;28;20063;-77
2023/08/23 06:38:44;;;;;;;20.98;13.85;;;;;;;;;;4981183;28;20097;-76
2023/08/23 06:41:10;;;;;;;16.98;13.02;;;;;;;;;;4986902;28;20026;-76
2023/08/23 06:43:36;;;;;;;18.73;13.63;;;;;;;;;;4984459;28;20126;-76
2023/08/23 06:46:02;;;;;;;25.02;14.85;;;;;;;;;;4986920;28;20105;-76
2023/08/23 06:48:28;;;;;;;21.63;14.77;;;;;;;;;;4989553;28;20034;-76
2023/08/23 06:50:54;;;;;;;20.67;13.70;;;;;;;;;;4989624;28;20084;-76
2023/08/23 06:53:21;;;;;;;22.65;15.02;;;;;;;;;;4984284;28;20547;-75
2023/08/23 06:55:47;;;;;;;20.13;13.77;;;;;;;;;;4979298;28;20314;-81
2023/08/23 06:58:13;;;;;;;19.77;14.35;;;;;;;;;;4993192;28;20440;-79
2023/08/23 07:00:39;;;;;;;20.73;13.93;;;;;;;;;;4984627;28;20384;-77
2023/08/23 07:03:05;;;;;;;17.13;13.95;;;;;;;;;;4990871;28;20165;-77
2023/08/23 07:05:34;;;;;;;16.98;13.77;;;;;;;;;;4986835;28;20044;-77
2023/08/23 07:08:00;;;;;;;35.53;25.77;;;;;;;;;;4998383;28;20044;-82
2023/08/23 07:10:26;;;;;;;20.80;14.00;;;;;;;;;;4987410;28;20065;-79
2023/08/23 07:12:52;;;;;;;21.70;14.82;;;;;;;;;;4993076;28;20096;-76
2023/08/23 07:15:19;;;;;;;20.13;13.75;;;;;;;;;;4982136;28;20512;-74
2023/08/23 07:17:45;;;;;;;19.42;14.13;;;;;;;;;;4978999;28;21089;-77
2023/08/23 07:20:13;;;;;;;18.88;14.45;;;;;;;;;;4991462;28;20047;-76
2023/08/23 07:22:40;;;;;;;21.80;15.93;;;;;;;;;;4981751;28;20137;-74
2023/08/23 07:25:06;;;;;;;19.52;14.90;;;;;;;;;;4988576;28;20076;-75
2023/08/23 07:27:33;;;;;;;22.33;14.63;;;;;;;;;;4989703;28;20077;-75
2023/08/23 07:30:00;;;;;;;22.77;16.40;;;;;;;;;;4981955;28;20026;-74
2023/08/23 07:32:30;;;;;;;21.45;14.77;;;;;;;;;;4981688;28;20061;-76
2023/08/23 07:34:56;;;;;;;19.33;14.27;;;;;;;;;;4989687;28;20042;-79
2023/08/23 07:37:22;;;;;;;21.90;14.82;;;;;;;;;;4983010;28;20429;-78
2023/08/23 07:39:49;;;;;;;23.55;15.20;;;;;;;;;;4979806;28;20041;-79
2023/08/23 07:42:15;;;;;;;21.45;14.75;;;;;;;;;;4983419;28;20066;-81
2023/08/23 07:44:41;;;;;;;18.63;13.63;;;;;;;;;;4984562;28;20496;-78
2023/08/23 07:47:07;;;;;;;22.55;15.07;;;;;;;;;;4983248;28;20428;-75
2023/08/23 07:49:33;;;;;;;18.52;13.50;;;;;;;;;;5001514;28;20030;-74
2023/08/23 07:51:59;;;;;;;21.00;13.68;;;;;;;;;;4977757;28;20057;-74
2023/08/23 07:54:25;;;;;;;16.40;12.88;;;;;;;;;;4987962;28;20070;-74
2023/08/23 07:56:51;;;;;;;20.35;12.88;;;;;;;;;;4990131;28;20459;-75
2023/08/23 07:59:17;;;;;;;17.63;12.52;;;;;;;;;;4988936;28;20050;-75
2023/08/23 08:01:43;;;;;;;20.15;13.88;;;;;;;;;;4984769;28;20275;-75
2023/08/23 08:04:09;;;;;;;20.15;14.40;;;;;;;;;;4987648;28;20046;-75
2023/08/23 08:06:35;;;;;;;20.60;13.32;;;;;;;;;;4981268;28;20167;-75
2023/08/23 08:09:01;;;;;;;19.33;11.60;;;;;;;;;;4995097;28;20026;-74
2023/08/23 08:11:27;;;;;;;15.57;11.02;;;;;;;;;;4991916;28;20112;-75
2023/08/23 08:13:53;;;;;;;17.15;10.93;;;;;;;;;;4991829;28;20026;-75
2023/08/23 08:16:19;;;;;;;16.25;11.95;;;;;;;;;;4990949;28;20061;-75
2023/08/23 08:18:45;;;;;;;18.27;11.85;;;;;;;;;;4988461;28;20030;-75
2023/08/23 08:21:11;;;;;;;18.40;9.52;;;;;;;;;;4991362;28;20050;-74
2023/08/23 08:23:37;;;;;;;15.25;11.45;;;;;;;;;;4990442;28;20039;-74
2023/08/23 08:26:05;;;;;;;15.23;11.65;;;;;;;;;;4977238;28;20034;-75
2023/08/23 08:28:31;;;;;;;19.92;12.23;;;;;;;;;;4991009;28;20032;-75
2023/08/23 08:30:57;;;;;;;16.50;12.50;;;;;;;;;;4991982;28;20072;-75
2023/08/23 08:33:23;;;;;;;20.67;11.85;;;;;;;;;;4988917;28;20130;-75
2023/08/23 08:35:49;;;;;;;18.60;11.93;;;;;;;;;;4991123;28;20129;-75
2023/08/23 08:38:15;;;;;;;19.13;12.52;;;;;;;;;;4987199;28;20030;-74
2023/08/23 08:40:42;;;;;;;20.52;13.10;;;;;;;;;;4987515;28;20030;-74
2023/08/23 08:43:08;;;;;;;17.48;12.27;;;;;;;;;;4987280;28;20035;-74
2023/08/23 08:45:34;;;;;;;14.50;11.70;;;;;;;;;;4989608;28;20112;-74
2023/08/23 08:48:00;;;;;;;16.00;11.13;;;;;;;;;;4989733;28;20480;-74
2023/08/23 08:50:26;;;;;;;16.10;10.73;;;;;;;;;;4991536;28;20034;-74
2023/08/23 08:52:53;;;;;;;17.85;11.07;;;;;;;;;;4989766;28;20128;-74
2023/08/23 08:55:22;;;;;;;14.15;10.70;;;;;;;;;;4985854;28;20100;-74
2023/08/23 08:57:53;;;;;;;17.92;11.00;;;;;;;;;;4984974;28;20045;-75
2023/08/23 09:00:21;;;;;;;12.95;10.43;;;;;;;;;;4981510;28;20023;-75
2023/08/23 09:02:48;;;;;;;16.15;10.75;;;;;;;;;;5005422;28;20484;-75
2023/08/23 09:05:14;;;;;;;17.90;10.10;;;;;;;;;;4991122;28;20484;-75
2023/08/23 09:07:41;;;;;;;13.48;10.25;;;;;;;;;;4986466;28;20125;-75
2023/08/23 09:10:07;;;;;;;13.57;8.68;;;;;;;;;;4989517;28;20030;-75
2023/08/23 09:12:34;;;;;;;16.50;9.05;;;;;;;;;;4983407;28;20081;-75
2023/08/23 09:15:06;;;;;;;14.02;8.57;;;;;;;;;;4985786;28;20034;-75
2023/08/23 09:17:35;;;;;;;14.40;8.48;;;;;;;;;;4983394;28;20488;-75
2023/08/23 09:20:06;;;;;;;13.50;6.82;;;;;;;;;;4978666;28;20528;-75
2023/08/23 09:22:33;;;;;;;9.20;5.15;;;;;;;;;;4985653;28;20498;-75
2023/08/23 09:24:59;;;;;;;14.35;6.05;;;;;;;;;;4990447;28;20496;-76
2023/08/23 09:27:26;;;;;;;16.83;6.43;;;;;;;;;;4988176;28;20076;-75
2023/08/23 09:29:55;;;;;;;16.67;6.55;;;;;;;;;;4985512;28;20101;-75
2023/08/23 09:32:21;;;;;;;12.00;4.80;;;;;;;;;;4986764;28;20117;-75
2023/08/23 09:34:48;;;;;;;13.18;4.55;;;;;;;;;;4982705;28;20090;-76
2023/08/23 09:37:14;;;;;;;8.23;3.75;;;;;;;;;;4982706;28;20059;-75
2023/08/23 09:39:40;;;;;;;12.90;3.95;;;;;;;;;;4982389;28;20248;-76
2023/08/23 09:42:08;;;;;;;12.68;5.20;;;;;;;;;;4984577;28;20480;-75
2023/08/23 09:44:40;;;;;;;10.70;4.78;;;;;;;;;;4978144;28;20030;-75
2023/08/23 09:47:09;;;;;;;8.30;4.32;;;;;;;;;;4984098;28;20241;-75
2023/08/23 09:49:36;;;;;;;11.38;4.03;;;;;;;;;;4990718;28;20112;-75
2023/08/23 09:52:03;;;;;;;9.57;4.07;;;;;;;;;;4987657;28;20105;-75
2023/08/23 09:54:29;;;;;;;10.65;3.85;;;;;;;;;;4989707;28;20521;-75
2023/08/23 09:56:55;;;;;;;7.78;4.03;;;;;;;;;;4984174;28;20018;-75
2023/08/23 09:59:21;;;;;;;10.15;4.13;;;;;;;;;;4981612;28;20026;-75
2023/08/23 10:01:48;;;;;;;7.40;3.80;;;;;;;;;;4984196;28;20060;-75
2023/08/23 10:04:15;;;;;;;6.90;3.80;;;;;;;;;;4983958;28;20050;-75
2023/08/23 10:06:43;;;;;;;11.82;4.28;;;;;;;;;;4980179;28;20405;-76
2023/08/23 10:09:09;;;;;;;11.57;4.20;;;;;;;;;;4985341;28;20557;-75
2023/08/23 10:11:35;;;;;;;10.77;4.03;;;;;;;;;;4987480;28;20169;-74
2023/08/23 10:14:03;;;;;;;7.78;3.20;;;;;;;;;;4988077;28;20042;-75
2023/08/23 10:16:29;;;;;;;12.10;4.07;;;;;;;;;;4988596;28;20045;-75
2023/08/23 10:18:55;;;;;;;9.10;4.55;;;;;;;;;;4983392;28;20104;-73
2023/08/23 10:21:21;;;;;;;9.45;3.95;;;;;;;;;;4978164;28;20034;-74
2023/08/23 10:23:48;;;;;;;7.40;4.18;;;;;;;;;;4987671;28;20533;-73
2023/08/23 10:26:21;;;;;;;7.68;3.03;;;;;;;;;;4982510;28;20051;-75
2023/08/23 10:28:52;;;;;;;6.15;2.78;;;;;;;;;;4982564;28;20030;-75
2023/08/23 10:31:27;;;;;;;7.03;4.28;;;;;;;;;;4990691;28;20352;-74
2023/08/23 10:33:54;;;;;;;13.80;6.65;;;;;;;;;;4990134;28;20050;-74
2023/08/23 10:36:27;;;;;;;9.65;5.90;;;;;;;;;;4984857;28;20047;-75
2023/08/23 10:38:59;;;;;;;14.82;3.70;;;;;;;;;;4987047;28;20027;-77
2023/08/23 10:41:28;;;;;;;8.27;3.22;;;;;;;;;;4983753;28;20041;-75
2023/08/23 10:43:54;;;;;;;7.72;3.67;;;;;;;;;;4983696;28;20046;-79
2023/08/23 10:46:22;;;;;;;11.05;3.92;;;;;;;;;;4984177;28;20118;-79
2023/08/23 10:48:48;;;;;;;7.25;3.80;;;;;;;;;;4987378;28;20076;-75
2023/08/23 10:51:15;;;;;;;6.90;3.85;;;;;;;;;;4982862;28;20497;-74
2023/08/23 10:53:42;;;;;;;7.55;3.00;;;;;;;;;;4975997;28;20118;-78
2023/08/23 10:56:09;;;;;;;7.10;4.10;;;;;;;;;;5013915;28;20387;-77
2023/08/23 10:58:35;;;;;;;11.93;3.78;;;;;;;;;;4987989;28;20125;-76
2023/08/23 11:01:02;;;;;;;9.75;3.50;;;;;;;;;;4983844;28;20041;-79
2023/08/23 11:03:34;;;;;;;6.85;3.20;;;;;;;;;;4985325;28;20360;-78
2023/08/23 11:06:00;;;;;;;6.38;2.95;;;;;;;;;;4985018;28;20121;-75
2023/08/23 11:08:26;;;;;;;8.35;3.80;;;;;;;;;;4982089;28;20041;-77
2023/08/23 11:10:52;;;;;;;6.03;3.78;;;;;;;;;;4988349;28;20379;-80
2023/08/23 11:13:18;;;;;;;7.63;3.55;;;;;;;;;;4991071;28;20034;-76
2023/08/23 11:15:44;;;;;;;6.43;2.70;;;;;;;;;;4990163;28;20041;-75
2023/08/23 11:18:13;;;;;;;10.10;3.33;;;;;;;;;;5000064;28;20156;-75
2023/08/23 11:20:40;;;;;;;7.85;3.17;;;;;;;;;;4985645;28;20094;-75
2023/08/23 11:23:06;;;;;;;6.88;2.60;;;;;;;;;;4985186;28;20425;-76
2023/08/23 11:25:33;;;;;;;8.07;2.92;;;;;;;;;;4982987;28;20049;-78
2023/08/23 11:27:59;;;;;;;10.77;3.70;;;;;;;;;;4988318;28;20513;-77
2023/08/23 11:30:26;;;;;;;8.90;3.67;;;;;;;;;;4983437;28;20165;-76
2023/08/23 11:32:52;;;;;;;7.82;2.95;;;;;;;;;;4995448;28;20051;-75
2023/08/23 11:35:18;;;;;;;7.65;2.53;;;;;;;;;;4983328;28;20139;-75
2023/08/23 11:37:49;;;;;;;7.88;2.25;;;;;;;;;;4983754;28;20091;-77
2023/08/23 11:40:16;;;;;;;5.28;2.33;;;;;;;;;;4994568;28;20479;-76
2023/08/23 11:42:42;;;;;;;7.30;2.45;;;;;;;;;;4979532;28;20042;-79
2023/08/23 11:45:09;;;;;;;8.60;2.30;;;;;;;;;;4988129;28;20034;-75
2023/08/23 11:47:35;;;;;;;4.25;1.90;;;;;;;;;;4983611;28;20542;-75
2023/08/23 11:50:02;;;;;;;4.43;1.52;;;;;;;;;;4982381;28;20517;-76
2023/08/23 11:52:31;;;;;;;5.40;1.95;;;;;;;;;;4981969;28;20062;-76
2023/08/23 11:54:58;;;;;;;7.68;1.60;;;;;;;;;;4985252;28;20038;-76
2023/08/23 11:57:24;;;;;;;8.48;2.28;;;;;;;;;;4983675;28;20035;-77
2023/08/23 11:59:50;;;;;;;5.90;2.55;;;;;;;;;;4993760;28;20033;-80
2023/08/23 12:02:16;;;;;;;5.05;1.73;;;;;;;;;;4988295;28;20038;-79
2023/08/23 12:04:44;;;;;;;9.77;2.10;;;;;;;;;;4988946;28;20050;-76
2023/08/23 12:07:10;;;;;;;4.57;2.03;;;;;;;;;;4990937;28;20030;-77
2023/08/23 12:09:39;;;;;;;6.30;2.28;;;;;;;;;;4992300;28;20027;-76
2023/08/23 12:12:05;;;;;;;5.20;2.00;;;;;;;;;;4985124;28;20286;-78
2023/08/23 12:14:31;;;;;;;4.57;1.63;;;;;;;;;;4991009;28;20456;-78
2023/08/23 12:16:57;;;;;;;5.45;1.50;;;;;;;;;;4976911;28;20106;-79
2023/08/23 12:19:23;;;;;;;10.55;2.20;;;;;;;;;;4980973;28;20038;-77
2023/08/23 12:21:50;;;;;;;5.40;1.58;;;;;;;;;;4989685;28;20031;-77
2023/08/23 12:24:16;;;;;;;5.40;1.20;;;;;;;;;;4989161;28;20293;-77
2023/08/23 12:26:42;;;;;;;4.93;1.50;;;;;;;;;;4988780;28;20151;-78
2023/08/23 12:29:08;;;;;;;4.50;1.20;;;;;;;;;;4987139;28;20100;-77
2023/08/23 12:31:35;;;;;;;6.68;1.65;;;;;;;;;;4986361;28;20038;-78
2023/08/23 12:34:01;;;;;;;5.35;1.48;;;;;;;;;;4982686;28;20046;-79
2023/08/23 12:36:27;;;;;;;5.82;1.33;;;;;;;;;;4985993;28;20059;-78
2023/08/23 12:38:53;;;;;;;8.70;1.45;;;;;;;;;;4991029;28;20054;-78
2023/08/23 12:41:19;;;;;;;3.35;1.10;;;;;;;;;;4986057;28;20502;-79
2023/08/23 12:43:45;;;;;;;9.00;1.85;;;;;;;;;;4994415;28;20539;-77
2023/08/23 12:46:12;;;;;;;3.60;1.42;;;;;;;;;;4978695;28;20117;-73
2023/08/23 12:48:38;;;;;;;4.22;1.27;;;;;;;;;;4986334;28;20029;-74
2023/08/23 12:51:04;;;;;;;5.40;1.17;;;;;;;;;;4988719;28;20046;-74
2023/08/23 12:53:30;;;;;;;6.82;1.40;;;;;;;;;;4985376;28;20105;-76
2023/08/23 12:55:56;;;;;;;11.27;1.95;;;;;;;;;;4988129;28;20488;-76
2023/08/23 12:58:22;;;;;;;3.85;1.33;;;;;;;;;;4986372;28;20065;-76
2023/08/23 13:00:48;;;;;;;5.18;1.63;;;;;;;;;;4991065;28;20026;-79
2023/08/23 13:03:14;;;;;;;5.95;1.58;;;;;;;;;;4983309;28;20038;-77
2023/08/23 13:05:40;;;;;;;5.05;1.35;;;;;;;;;;4986017;28;20661;-76
2023/08/23 13:08:07;;;;;;;6.90;1.20;;;;;;;;;;4991783;28;20039;-76
2023/08/23 13:10:33;;;;;;;7.55;2.08;;;;;;;;;;5005352;28;20026;-76
2023/08/23 13:12:59;;;;;;;4.93;2.08;;;;;;;;;;4989920;28;20046;-77
2023/08/23 13:15:25;;;;;;;6.28;1.60;;;;;;;;;;4986566;28;20046;-78
2023/08/23 13:17:55;;;;;;;4.57;1.70;;;;;;;;;;4988807;28;20515;-78
2023/08/23 13:20:21;;;;;;;8.75;2.40;;;;;;;;;;4995949;28;20043;-74
2023/08/23 13:22:47;;;;;;;5.40;2.00;;;;;;;;;;4979631;28;20049;-75
2023/08/23 13:25:13;;;;;;;5.57;2.30;;;;;;;;;;4982563;28;20069;-75
2023/08/23 13:27:39;;;;;;;7.72;2.53;;;;;;;;;;4989437;28;20272;-74
2023/08/23 13:30:06;;;;;;;11.02;2.72;;;;;;;;;;4986695;28;20030;-75
2023/08/23 13:32:32;;;;;;;10.32;2.50;;;;;;;;;;4996289;28;20048;-74
2023/08/23 13:34:59;;;;;;;10.43;3.20;;;;;;;;;;4987798;28;21914;-75
2023/08/23 13:37:25;;;;;;;7.47;2.90;;;;;;;;;;4986548;28;20023;-75
2023/08/23 13:39:51;;;;;;;7.68;3.22;;;;;;;;;;4987998;28;20567;-75
2023/08/23 13:42:17;;;;;;;5.47;2.95;;;;;;;;;;4988377;28;20510;-75
2023/08/23 13:44:43;;;;;;;7.57;3.25;;;;;;;;;;4992962;28;20046;-75
2023/08/23 13:47:09;;;;;;;6.97;2.72;;;;;;;;;;4989678;28;20027;-75
2023/08/23 13:49:35;;;;;;;11.75;3.22;;;;;;;;;;4988460;28;20038;-75
2023/08/23 13:52:01;;;;;;;13.65;3.25;;;;;;;;;;4990321;28;20026;-75
2023/08/23 13:54:27;;;;;;;5.20;2.95;;;;;;;;;;4983536;28;20027;-75
2023/08/23 13:56:53;;;;;;;9.60;3.58;;;;;;;;;;4988336;28;20043;-75
2023/08/23 13:59:19;;;;;;;7.72;3.03;;;;;;;;;;4989340;28;20031;-75
2023/08/23 14:01:45;;;;;;;7.22;3.28;;;;;;;;;;4990387;28;20119;-75
2023/08/23 14:04:12;;;;;;;6.35;3.15;;;;;;;;;;4977510;28;20035;-75
2023/08/23 14:06:38;;;;;;;10.98;3.13;;;;;;;;;;4988049;28;20039;-75
2023/08/23 14:09:04;;;;;;;9.00;2.72;;;;;;;;;;4989608;28;20091;-76
2023/08/23 14:11:32;;;;;;;6.03;2.30;;;;;;;;;;4990037;28;20037;-75
2023/08/23 14:13:58;;;;;;;8.15;2.78;;;;;;;;;;4989267;28;20248;-75
2023/08/23 14:16:25;;;;;;;8.23;1.63;;;;;;;;;;4988202;28;21341;-75
2023/08/23 14:18:51;;;;;;;5.65;1.98;;;;;;;;;;4984336;28;20049;-75
2023/08/23 14:21:17;;;;;;;9.10;1.95;;;;;;;;;;4989200;28;20038;-75
2023/08/23 14:23:43;;;;;;;6.65;1.98;;;;;;;;;;4981742;28;20038;-75
2023/08/23 14:26:09;;;;;;;3.80;1.20;;;;;;;;;;4970786;28;20030;-75